createdAt,value
2022-09-16T00:02:56.149Z,7.83
2022-09-16T00:05:57.942Z,2.57
2022-09-16T00:09:03.505Z,3.47
2022-09-16T00:12:06.461Z,3.30
2022-09-16T00:15:08.695Z,2.40
2022-09-16T00:18:11.585Z,2.80
2022-09-16T00:21:13.304Z,2.47
2022-09-16T00:24:16.374Z,3.33
2022-09-16T00:27:18.011Z,3.00
2022-09-16T00:30:19.633Z,2.43
2022-09-16T00:33:21.362Z,3.73
2022-09-16T00:36:23.154Z,1.93
2022-09-16T00:39:24.832Z,2.90
2022-09-16T00:42:26.518Z,3.07
2022-09-16T00:45:31.547Z,4.00
2022-09-16T00:48:34.269Z,2.97
2022-09-16T00:51:37.143Z,3.13
2022-09-16T00:54:40.163Z,4.23
2022-09-16T00:57:42.577Z,3.60
2022-09-16T01:00:44.633Z,3.50
2022-09-16T01:03:54.116Z,4.00
2022-09-16T01:06:56.440Z,2.47
2022-09-16T01:09:58.342Z,3.07
2022-09-16T01:13:06.462Z,3.13
2022-09-16T01:16:10.844Z,2.40
2022-09-16T01:19:35.768Z,3.73
2022-09-16T01:23:07.208Z,4.23
2022-09-16T01:26:37.558Z,3.37
2022-09-16T01:30:00.281Z,3.27
2022-09-16T01:33:36.014Z,2.37
2022-09-16T01:36:47.430Z,1.83
2022-09-16T01:40:16.689Z,1.63
2022-09-16T01:43:22.061Z,2.57
2022-09-16T01:46:32.744Z,3.33
2022-09-16T01:50:04.045Z,3.90
2022-09-16T01:53:10.496Z,3.33
2022-09-16T01:56:37.609Z,3.30
2022-09-16T01:59:54.246Z,3.30
2022-09-16T02:03:13.293Z,4.03
2022-09-16T02:06:23.135Z,3.73
2022-09-16T02:09:37.304Z,4.87
2022-09-16T02:12:43.519Z,3.40
2022-09-16T02:15:49.729Z,2.30
2022-09-16T02:18:55.719Z,3.93
2022-09-16T02:21:59.044Z,2.27
2022-09-16T02:25:02.215Z,3.17
2022-09-16T02:28:08.076Z,3.80
2022-09-16T02:31:13.406Z,3.47
2022-09-16T02:34:19.732Z,5.33
2022-09-16T02:37:49.226Z,2.80
2022-09-16T02:40:55.580Z,4.03
2022-09-16T02:43:57.370Z,3.67
2022-09-16T02:47:15.902Z,5.40
2022-09-16T02:50:29.744Z,3.40
2022-09-16T02:53:35.448Z,2.30
2022-09-16T02:56:40.331Z,4.03
2022-09-16T02:59:42.219Z,3.97
2022-09-16T03:02:44.596Z,5.70
2022-09-16T03:06:25.254Z,4.33
2022-09-16T03:09:29.778Z,4.00
2022-09-16T03:12:37.158Z,4.03
2022-09-16T03:15:50.738Z,3.47
2022-09-16T03:19:08.404Z,3.80
2022-09-16T03:22:21.452Z,2.63
2022-09-16T03:25:23.036Z,4.53
2022-09-16T03:28:27.404Z,3.27
2022-09-16T03:31:48.181Z,3.07
2022-09-16T03:34:53.329Z,3.00
2022-09-16T03:37:57.213Z,3.90
2022-09-16T03:40:59.270Z,5.20
2022-09-16T03:44:04.051Z,2.80
2022-09-16T03:47:07.576Z,3.40
2022-09-16T03:50:09.553Z,3.47
2022-09-16T03:53:11.209Z,4.97
2022-09-16T03:56:12.832Z,6.10
2022-09-16T03:59:14.617Z,3.07
2022-09-16T04:02:16.267Z,4.27
2022-09-16T04:05:17.978Z,4.57
2022-09-16T04:08:19.681Z,5.17
2022-09-16T04:11:21.317Z,4.73
2022-09-16T04:14:22.977Z,5.20
2022-09-16T04:17:24.821Z,4.97
2022-09-16T04:20:26.798Z,3.77
2022-09-16T04:23:30.945Z,7.97
2022-09-16T04:26:35.412Z,4.37
2022-09-16T04:29:37.183Z,5.53
2022-09-16T04:32:38.819Z,6.43
2022-09-16T04:35:40.449Z,7.00
2022-09-16T04:38:43.871Z,5.00
2022-09-16T04:41:48.295Z,4.77
2022-09-16T04:44:49.938Z,6.00
2022-09-16T04:47:58.491Z,4.70
2022-09-16T04:51:10.322Z,6.27
2022-09-16T04:54:12.335Z,7.23
2022-09-16T04:57:13.966Z,6.17
2022-09-16T05:00:15.977Z,5.57
2022-09-16T05:03:17.641Z,6.13
2022-09-16T05:06:24.675Z,6.67
2022-09-16T05:09:26.328Z,7.23
2022-09-16T05:12:27.970Z,6.43
2022-09-16T05:15:29.872Z,7.90
2022-09-16T05:18:47.341Z,6.87
2022-09-16T05:21:48.966Z,8.07
2022-09-16T05:24:50.640Z,7.00
2022-09-16T05:27:52.242Z,8.27
2022-09-16T05:31:24.188Z,12.40
2022-09-16T05:34:59.007Z,10.10
2022-09-16T05:38:00.790Z,9.97
2022-09-16T05:41:03.831Z,10.43
2022-09-16T05:44:08.816Z,11.20
2022-09-16T05:47:10.397Z,11.17
2022-09-16T05:50:11.997Z,12.37
2022-09-16T05:53:13.570Z,11.90
2022-09-16T05:56:25.669Z,11.73
2022-09-16T05:59:27.300Z,10.53
2022-09-16T06:02:28.989Z,10.63
2022-09-16T06:05:32.958Z,11.57
2022-09-16T06:08:36.066Z,11.70
2022-09-16T06:11:49.689Z,10.50
2022-09-16T06:14:56.151Z,10.50
2022-09-16T06:18:00.034Z,8.53
2022-09-16T06:21:07.992Z,9.10
2022-09-16T06:24:31.746Z,10.47
2022-09-16T06:27:33.357Z,11.77
2022-09-16T06:30:35.313Z,7.57
2022-09-16T06:33:37.445Z,7.67
2022-09-16T06:36:42.742Z,7.90
2022-09-16T06:39:46.635Z,7.47
2022-09-16T06:42:48.367Z,6.73
2022-09-16T06:45:50.007Z,7.23
2022-09-16T06:48:54.042Z,10.83
2022-09-16T06:51:55.736Z,8.47
2022-09-16T06:54:58.048Z,7.00
2022-09-16T06:57:59.722Z,5.57
2022-09-16T07:01:08.712Z,7.47
2022-09-16T07:04:13.081Z,6.57
2022-09-16T07:07:29.308Z,5.87
2022-09-16T07:10:30.912Z,4.83
2022-09-16T07:13:43.539Z,5.13
2022-09-16T07:16:48.291Z,4.33
2022-09-16T07:19:49.972Z,4.43
2022-09-16T07:22:53.916Z,4.60
2022-09-16T07:26:21.878Z,6.67
2022-09-16T07:29:23.645Z,4.90
2022-09-16T07:32:25.215Z,4.30
2022-09-16T07:35:27.089Z,9.77
2022-09-16T07:38:30.090Z,5.00
2022-09-16T07:41:39.036Z,5.43
2022-09-16T07:44:40.709Z,5.40
2022-09-16T07:47:42.342Z,4.83
2022-09-16T07:50:58.104Z,7.90
2022-09-16T07:54:03.573Z,5.73
2022-09-16T07:57:05.258Z,4.73
2022-09-16T08:00:07.681Z,4.50
2022-09-16T08:03:10.056Z,6.33
2022-09-16T08:06:14.647Z,5.40
2022-09-16T08:12:40.119Z,4.87
2022-09-16T08:15:41.708Z,7.27
2022-09-16T08:18:44.088Z,5.83
2022-09-16T08:21:45.919Z,5.93
2022-09-16T08:24:47.504Z,5.47
2022-09-16T08:27:52.795Z,6.23
2022-09-16T08:31:01.581Z,6.53
2022-09-16T08:34:03.306Z,7.70
2022-09-16T08:37:05.000Z,5.73
2022-09-16T08:40:07.173Z,5.97
2022-09-16T08:43:27.231Z,10.87
2022-09-16T08:46:42.430Z,5.73
2022-09-16T08:49:46.916Z,5.77
2022-09-16T08:52:49.784Z,4.80
2022-09-16T08:55:51.985Z,4.47
2022-09-16T08:58:57.612Z,4.67
2022-09-16T09:02:24.723Z,4.17
2022-09-16T09:05:29.611Z,3.23
2022-09-16T09:08:47.425Z,4.17
2022-09-16T09:11:57.970Z,5.37
2022-09-16T09:15:40.489Z,4.27
2022-09-16T09:19:10.582Z,3.97
2022-09-16T09:22:27.544Z,2.57
2022-09-16T09:25:58.812Z,3.73
2022-09-16T09:29:13.586Z,4.70
2022-09-16T09:32:48.956Z,3.53
2022-09-16T09:36:34.670Z,3.57
2022-09-16T09:39:41.135Z,2.60
2022-09-16T09:42:59.864Z,6.07
2022-09-16T09:46:29.035Z,3.23
2022-09-16T09:49:54.304Z,4.57
2022-09-16T09:53:10.937Z,2.67
2022-09-16T09:56:21.869Z,1.80
2022-09-16T09:59:49.223Z,2.70
2022-09-16T10:02:51.610Z,4.20
2022-09-16T10:05:53.203Z,3.80
2022-09-16T10:08:57.886Z,1.57
2022-09-16T10:12:03.031Z,1.70
2022-09-16T10:15:05.205Z,3.43
2022-09-16T10:18:14.604Z,3.87
2022-09-16T10:21:17.724Z,2.77
2022-09-16T10:24:33.028Z,4.30
2022-09-16T10:27:37.344Z,4.70
2022-09-16T10:30:52.044Z,4.00
2022-09-16T10:33:53.944Z,3.60
2022-09-16T10:37:33.765Z,3.20
2022-09-16T10:41:15.658Z,3.27
2022-09-16T10:44:23.650Z,5.17
2022-09-16T10:47:31.381Z,4.53
2022-09-16T10:50:33.151Z,4.20
2022-09-16T10:54:08.449Z,3.50
2022-09-16T10:57:31.291Z,4.60
2022-09-16T11:00:45.416Z,1.50
2022-09-16T11:04:13.117Z,3.93
2022-09-16T11:07:52.480Z,2.53
2022-09-16T11:15:11.058Z,2.27
2022-09-16T11:22:43.458Z,2.13
2022-09-16T11:25:56.531Z,2.87
2022-09-16T11:29:09.502Z,1.97
2022-09-16T11:32:20.107Z,3.30
2022-09-16T11:35:59.403Z,2.43
2022-09-16T11:39:31.760Z,2.47
2022-09-16T11:42:51.501Z,2.80
2022-09-16T11:46:04.411Z,3.40
2022-09-16T11:49:39.885Z,3.40
2022-09-16T11:52:44.413Z,3.67
2022-09-16T11:56:00.951Z,2.30
2022-09-16T11:59:24.658Z,1.80
2022-09-16T12:02:29.447Z,1.70
2022-09-16T12:05:35.298Z,2.17
2022-09-16T12:08:55.532Z,3.50
2022-09-16T12:12:24.138Z,2.07
2022-09-16T12:18:51.401Z,3.97
2022-09-16T12:22:01.491Z,2.47
2022-09-16T12:25:09.089Z,4.47
2022-09-16T12:28:38.732Z,3.63
2022-09-16T12:32:05.148Z,1.50
2022-09-16T12:35:17.320Z,3.17
2022-09-16T12:38:20.895Z,2.63
2022-09-16T12:41:45.301Z,3.17
2022-09-16T12:44:57.781Z,2.63
2022-09-16T12:48:17.638Z,5.37
2022-09-16T12:51:44.982Z,3.23
2022-09-16T12:55:23.093Z,1.40
2022-09-16T12:58:43.360Z,3.10
2022-09-16T13:01:48.379Z,2.73
2022-09-16T13:04:58.034Z,1.57
2022-09-16T13:08:07.756Z,2.40
2022-09-16T13:12:07.189Z,2.70
2022-09-16T13:14:49.273Z,1.97
2022-09-16T13:17:53.153Z,2.30
2022-09-16T13:21:00.016Z,1.63
2022-09-16T13:24:12.612Z,2.53
2022-09-16T13:27:48.153Z,2.17
2022-09-16T13:30:49.811Z,2.83
2022-09-16T13:33:57.555Z,1.77
2022-09-16T13:36:59.266Z,1.30
2022-09-16T13:40:31.289Z,3.50
2022-09-16T13:43:58.190Z,5.57
2022-09-16T13:47:12.086Z,7.07
2022-09-16T13:50:16.119Z,3.60
2022-09-16T13:53:26.848Z,4.80
2022-09-16T13:56:37.488Z,3.13
2022-09-16T14:00:02.426Z,3.07
2022-09-16T14:03:47.552Z,6.10
2022-09-16T14:07:02.653Z,3.67
2022-09-16T14:10:24.478Z,3.67
2022-09-16T14:13:35.948Z,2.23
2022-09-16T14:16:41.880Z,1.80
2022-09-16T14:19:46.778Z,1.67
2022-09-16T14:22:48.730Z,2.73
2022-09-16T14:25:53.475Z,3.40
2022-09-16T14:29:04.766Z,2.10
2022-09-16T14:32:13.500Z,2.50
2022-09-16T14:35:22.736Z,1.47
2022-09-16T14:39:07.086Z,2.70
2022-09-16T14:42:05.228Z,4.17
2022-09-16T14:45:08.277Z,3.87
2022-09-16T14:48:11.900Z,2.70
2022-09-16T14:51:22.096Z,4.03
2022-09-16T14:54:26.137Z,1.70
2022-09-16T14:57:30.136Z,1.40
2022-09-16T15:00:47.120Z,1.20
2022-09-16T15:04:08.823Z,2.27
2022-09-16T15:07:18.208Z,2.77
2022-09-16T15:10:30.266Z,5.00
2022-09-16T15:13:42.872Z,4.87
2022-09-16T15:16:49.512Z,3.03
2022-09-16T15:20:01.309Z,4.33
2022-09-16T15:23:09.667Z,2.00
2022-09-16T15:26:18.890Z,3.20
2022-09-16T15:29:20.897Z,1.23
2022-09-16T15:32:28.275Z,2.10
2022-09-16T15:35:35.466Z,2.73
2022-09-16T15:38:39.938Z,2.73
2022-09-16T15:41:45.597Z,4.73
2022-09-16T15:44:56.917Z,1.20
2022-09-16T15:48:04.753Z,2.70
2022-09-16T15:51:31.515Z,6.27
2022-09-16T15:54:37.531Z,2.57
2022-09-16T15:57:44.702Z,4.87
2022-09-16T16:01:13.549Z,4.93
2022-09-16T16:04:25.388Z,6.37
2022-09-16T16:08:00.700Z,2.33
2022-09-16T16:11:08.933Z,2.40
2022-09-16T16:14:10.520Z,2.63
2022-09-16T16:17:21.469Z,2.90
2022-09-16T16:20:23.967Z,3.10
2022-09-16T16:23:25.548Z,2.13
2022-09-16T16:26:27.156Z,3.10
2022-09-16T16:29:28.801Z,1.57
2022-09-16T16:32:31.660Z,3.47
2022-09-16T16:35:33.314Z,4.70
2022-09-16T16:38:45.424Z,3.50
2022-09-16T16:41:47.005Z,3.27
2022-09-16T16:44:49.151Z,4.77
2022-09-16T16:47:50.922Z,2.70
2022-09-16T16:51:00.696Z,2.33
2022-09-16T16:54:02.356Z,1.60
2022-09-16T16:57:04.468Z,2.47
2022-09-16T17:00:07.363Z,2.47
2022-09-16T17:03:08.971Z,2.97
2022-09-16T17:06:11.132Z,2.37
2022-09-16T17:09:15.871Z,2.43
2022-09-16T17:12:18.082Z,1.83
2022-09-16T17:15:19.748Z,12.67
2022-09-16T17:18:21.348Z,3.40
2022-09-16T17:21:26.663Z,3.03
2022-09-16T17:24:28.352Z,3.90
2022-09-16T17:27:30.089Z,3.37
2022-09-16T17:30:31.976Z,3.87
2022-09-16T17:33:33.682Z,1.03
2022-09-16T17:36:37.946Z,3.40
2022-09-16T17:39:40.284Z,4.00
2022-09-16T17:42:41.901Z,2.70
2022-09-16T17:45:51.419Z,2.90
2022-09-16T17:48:58.567Z,2.27
2022-09-16T17:52:02.363Z,2.30
2022-09-16T17:55:15.200Z,2.60
2022-09-16T17:58:16.910Z,4.30
2022-09-16T18:01:21.542Z,6.90
2022-09-16T18:04:23.185Z,3.57
2022-09-16T18:07:24.838Z,6.70
2022-09-16T18:10:26.605Z,3.60
2022-09-16T18:13:28.618Z,3.70
2022-09-16T18:16:30.791Z,5.37
2022-09-16T18:19:35.572Z,2.63
2022-09-16T18:22:37.545Z,6.10
2022-09-16T18:25:39.131Z,4.30
2022-09-16T18:29:07.878Z,4.83
2022-09-16T18:32:04.776Z,4.37
2022-09-16T18:35:06.887Z,3.60
2022-09-16T18:38:12.792Z,3.47
2022-09-16T18:41:17.795Z,3.83
2022-09-16T18:44:23.655Z,1.80
2022-09-16T18:47:25.325Z,5.53
2022-09-16T18:50:26.901Z,4.50
2022-09-16T18:53:28.552Z,3.20
2022-09-16T18:56:32.338Z,5.17
2022-09-16T18:59:36.946Z,4.47
2022-09-16T19:02:38.606Z,6.00
2022-09-16T19:05:40.319Z,9.67
2022-09-16T19:08:42.097Z,6.50
2022-09-16T19:11:44.061Z,6.30
2022-09-16T19:14:45.858Z,5.43
2022-09-16T19:17:47.873Z,6.43
2022-09-16T19:20:53.146Z,6.03
2022-09-16T19:23:58.713Z,5.50
2022-09-16T19:27:00.513Z,5.50
2022-09-16T19:30:02.131Z,7.03
2022-09-16T19:33:04.010Z,9.20
2022-09-16T19:36:20.644Z,5.87
2022-09-16T19:39:22.297Z,10.17
2022-09-16T19:42:24.012Z,4.47
2022-09-16T19:46:08.329Z,5.10
2022-09-16T19:49:57.922Z,5.27
2022-09-16T19:52:59.552Z,4.73
2022-09-16T19:56:24.938Z,5.47
2022-09-16T19:59:26.560Z,5.40
2022-09-16T20:02:28.449Z,6.77
2022-09-16T20:05:30.876Z,5.27
2022-09-16T20:08:33.485Z,12.57
2022-09-16T20:11:36.987Z,6.47
2022-09-16T20:14:38.763Z,3.77
2022-09-16T20:17:40.650Z,5.87
2022-09-16T20:20:45.365Z,6.47
2022-09-16T20:23:49.297Z,3.90
2022-09-16T20:26:53.257Z,6.03
2022-09-16T20:29:54.849Z,5.07
2022-09-16T20:32:56.493Z,5.90
2022-09-16T20:36:13.856Z,9.20
2022-09-16T20:39:15.764Z,7.00
2022-09-16T20:42:20.070Z,4.10
2022-09-16T20:45:21.661Z,8.43
2022-09-16T20:48:23.277Z,4.43
2022-09-16T20:51:27.759Z,8.40
2022-09-16T20:54:29.333Z,8.40
2022-09-16T20:57:30.953Z,5.47
2022-09-16T21:00:34.744Z,6.37
2022-09-16T21:03:36.598Z,5.60
2022-09-16T21:06:38.306Z,4.70
2022-09-16T21:09:39.880Z,5.00
2022-09-16T21:12:41.476Z,4.40
2022-09-16T21:15:43.181Z,3.70
2022-09-16T21:18:44.793Z,3.50
2022-09-16T21:21:48.412Z,6.13
2022-09-16T21:24:50.141Z,6.73
2022-09-16T21:27:51.737Z,7.00
2022-09-16T21:31:05.010Z,5.07
2022-09-16T21:34:10.662Z,7.57
2022-09-16T21:37:12.269Z,6.80
2022-09-16T21:40:14.150Z,8.03
2022-09-16T21:43:15.842Z,3.43
2022-09-16T21:46:20.080Z,4.20
2022-09-16T21:49:25.627Z,1.93
2022-09-16T21:52:27.317Z,3.53
2022-09-16T21:55:30.346Z,4.23
2022-09-16T21:58:32.793Z,3.00
2022-09-16T22:01:35.086Z,5.40
2022-09-16T22:04:36.724Z,2.03
2022-09-16T22:07:38.325Z,2.93
2022-09-16T22:10:39.960Z,2.33
2022-09-16T22:13:41.897Z,4.93
2022-09-16T22:16:45.790Z,3.77
2022-09-16T22:19:47.874Z,3.23
2022-09-16T22:22:49.912Z,3.70
2022-09-16T22:25:51.529Z,3.43
2022-09-16T22:28:53.255Z,3.03
2022-09-16T22:31:54.864Z,3.67
2022-09-16T22:34:56.539Z,4.53
2022-09-16T22:38:31.434Z,4.00
2022-09-16T22:41:33.930Z,3.13
2022-09-16T22:44:35.531Z,5.17
2022-09-16T22:47:37.673Z,4.67
2022-09-16T22:50:39.260Z,4.30
2022-09-16T22:53:42.327Z,2.97
2022-09-16T22:56:44.353Z,3.13
2022-09-16T22:59:45.928Z,2.03
2022-09-16T23:02:50.360Z,2.40
2022-09-16T23:05:56.475Z,2.87
2022-09-16T23:08:59.587Z,2.73
2022-09-16T23:12:01.364Z,1.53
2022-09-16T23:15:03.192Z,2.50
2022-09-16T23:18:05.474Z,2.00
2022-09-16T23:21:14.199Z,2.90
2022-09-16T23:24:21.112Z,1.90
2022-09-16T23:27:22.679Z,1.97
2022-09-16T23:30:24.372Z,2.87
2022-09-16T23:33:26.065Z,2.20
2022-09-16T23:36:28.496Z,2.27
2022-09-16T23:39:30.089Z,1.73
2022-09-16T23:42:31.746Z,1.77
2022-09-16T23:45:36.953Z,2.27
2022-09-16T23:48:38.793Z,1.20
2022-09-16T23:51:40.492Z,1.93
2022-09-16T23:54:42.151Z,2.90
2022-09-16T23:57:43.751Z,1.47
